sensor_id;sensor_type;location;lat;lon;timestamp;P1;durP1;ratioP1;P2;durP2;ratioP2
81821;SDS011;72257;52.384;4.882;2024-02-15T00:00:59;9.90;;;2.78;;
81821;SDS011;72257;52.384;4.882;2024-02-15T00:03:25;10.40;;;2.47;;
81821;SDS011;72257;52.384;4.882;2024-02-15T00:05:50;8.82;;;2.20;;
81821;SDS011;72257;52.384;4.882;2024-02-15T00:08:15;10.10;;;2.85;;
81821;SDS011;72257;52.384;4.882;2024-02-15T00:10:41;8.52;;;2.72;;
81821;SDS011;72257;52.384;4.882;2024-02-15T00:13:06;8.13;;;2.60;;
81821;SDS011;72257;52.384;4.882;2024-02-15T00:15:32;12.70;;;3.90;;
81821;SDS011;72257;52.384;4.882;2024-02-15T00:17:59;11.55;;;4.10;;
81821;SDS011;72257;52.384;4.882;2024-02-15T00:20:25;9.85;;;3.03;;
81821;SDS011;72257;52.384;4.882;2024-02-15T00:22:50;10.07;;;3.20;;
81821;SDS011;72257;52.384;4.882;2024-02-15T00:25:17;9.35;;;3.08;;
81821;SDS011;72257;52.384;4.882;2024-02-15T00:27:44;8.75;;;3.05;;
81821;SDS011;72257;52.384;4.882;2024-02-15T00:30:10;11.93;;;3.45;;
81821;SDS011;72257;52.384;4.882;2024-02-15T00:32:36;13.43;;;3.30;;
81821;SDS011;72257;52.384;4.882;2024-02-15T00:35:02;9.13;;;3.03;;
81821;SDS011;72257;52.384;4.882;2024-02-15T00:37:27;10.05;;;3.28;;
81821;SDS011;72257;52.384;4.882;2024-02-15T00:39:53;12.93;;;4.20;;
81821;SDS011;72257;52.384;4.882;2024-02-15T00:42:18;10.97;;;3.20;;
81821;SDS011;72257;52.384;4.882;2024-02-15T00:44:44;11.85;;;3.50;;
81821;SDS011;72257;52.384;4.882;2024-02-15T00:47:09;11.73;;;2.97;;
81821;SDS011;72257;52.384;4.882;2024-02-15T00:49:37;11.63;;;3.97;;
81821;SDS011;72257;52.384;4.882;2024-02-15T00:52:02;12.93;;;4.47;;
81821;SDS011;72257;52.384;4.882;2024-02-15T00:54:28;15.60;;;3.60;;
81821;SDS011;72257;52.384;4.882;2024-02-15T00:56:53;7.13;;;2.90;;
81821;SDS011;72257;52.384;4.882;2024-02-15T00:59:18;12.23;;;3.97;;
81821;SDS011;72257;52.384;4.882;2024-02-15T01:01:44;9.57;;;3.53;;
81821;SDS011;72257;52.384;4.882;2024-02-15T01:04:09;17.90;;;4.18;;
81821;SDS011;72257;52.384;4.882;2024-02-15T01:06:35;10.57;;;3.92;;
81821;SDS011;72257;52.384;4.882;2024-02-15T01:09:01;11.80;;;3.35;;
81821;SDS011;72257;52.384;4.882;2024-02-15T01:11:28;9.20;;;3.47;;
81821;SDS011;72257;52.384;4.882;2024-02-15T01:13:54;11.35;;;4.32;;
81821;SDS011;72257;52.384;4.882;2024-02-15T01:16:20;10.05;;;4.00;;
81821;SDS011;72257;52.384;4.882;2024-02-15T01:18:46;12.85;;;3.72;;
81821;SDS011;72257;52.384;4.882;2024-02-15T01:21:12;11.57;;;4.47;;
81821;SDS011;72257;52.384;4.882;2024-02-15T01:23:37;9.50;;;3.75;;
81821;SDS011;72257;52.384;4.882;2024-02-15T01:26:03;12.98;;;4.43;;
81821;SDS011;72257;52.384;4.882;2024-02-15T01:28:29;11.35;;;4.50;;
81821;SDS011;72257;52.384;4.882;2024-02-15T01:30:55;10.40;;;3.92;;
81821;SDS011;72257;52.384;4.882;2024-02-15T01:33:20;17.23;;;5.60;;
81821;SDS011;72257;52.384;4.882;2024-02-15T01:35:46;15.00;;;4.97;;
81821;SDS011;72257;52.384;4.882;2024-02-15T01:38:13;10.93;;;4.50;;
81821;SDS011;72257;52.384;4.882;2024-02-15T01:40:38;15.23;;;5.57;;
81821;SDS011;72257;52.384;4.882;2024-02-15T01:43:04;10.55;;;5.53;;
81821;SDS011;72257;52.384;4.882;2024-02-15T01:45:29;11.10;;;5.17;;
81821;SDS011;72257;52.384;4.882;2024-02-15T01:47:56;13.85;;;5.18;;
81821;SDS011;72257;52.384;4.882;2024-02-15T01:50:22;9.95;;;4.80;;
81821;SDS011;72257;52.384;4.882;2024-02-15T01:52:49;9.63;;;5.35;;
81821;SDS011;72257;52.384;4.882;2024-02-15T01:55:18;9.63;;;5.05;;
81821;SDS011;72257;52.384;4.882;2024-02-15T01:57:44;10.90;;;5.82;;
81821;SDS011;72257;52.384;4.882;2024-02-15T02:00:12;8.30;;;4.63;;
81821;SDS011;72257;52.384;4.882;2024-02-15T02:02:39;10.07;;;5.10;;
81821;SDS011;72257;52.384;4.882;2024-02-15T02:07:33;9.27;;;5.28;;
81821;SDS011;72257;52.384;4.882;2024-02-15T02:09:59;9.80;;;4.65;;
81821;SDS011;72257;52.384;4.882;2024-02-15T02:12:24;10.60;;;4.68;;
81821;SDS011;72257;52.384;4.882;2024-02-15T02:14:52;16.98;;;5.28;;
81821;SDS011;72257;52.384;4.882;2024-02-15T02:17:20;11.32;;;4.88;;
81821;SDS011;72257;52.384;4.882;2024-02-15T02:19:46;7.88;;;4.38;;
81821;SDS011;72257;52.384;4.882;2024-02-15T02:22:13;12.27;;;5.10;;
81821;SDS011;72257;52.384;4.882;2024-02-15T02:27:17;10.98;;;4.93;;
81821;SDS011;72257;52.384;4.882;2024-02-15T02:29:43;11.85;;;5.63;;
81821;SDS011;72257;52.384;4.882;2024-02-15T02:32:11;7.70;;;4.57;;
81821;SDS011;72257;52.384;4.882;2024-02-15T02:34:37;13.15;;;4.85;;
81821;SDS011;72257;52.384;4.882;2024-02-15T02:37:03;9.93;;;4.78;;
81821;SDS011;72257;52.384;4.882;2024-02-15T02:39:30;8.32;;;4.82;;
81821;SDS011;72257;52.384;4.882;2024-02-15T02:41:56;10.65;;;5.30;;
81821;SDS011;72257;52.384;4.882;2024-02-15T02:44:22;9.73;;;4.50;;
81821;SDS011;72257;52.384;4.882;2024-02-15T02:46:47;11.68;;;5.72;;
81821;SDS011;72257;52.384;4.882;2024-02-15T02:49:13;13.33;;;6.00;;
81821;SDS011;72257;52.384;4.882;2024-02-15T02:51:38;10.67;;;5.57;;
81821;SDS011;72257;52.384;4.882;2024-02-15T02:54:03;12.43;;;4.95;;
81821;SDS011;72257;52.384;4.882;2024-02-15T02:56:31;11.63;;;5.28;;
81821;SDS011;72257;52.384;4.882;2024-02-15T02:58:57;13.15;;;5.28;;
81821;SDS011;72257;52.384;4.882;2024-02-15T03:01:23;14.03;;;6.37;;
81821;SDS011;72257;52.384;4.882;2024-02-15T03:03:51;10.38;;;4.97;;
81821;SDS011;72257;52.384;4.882;2024-02-15T03:06:20;10.27;;;5.25;;
81821;SDS011;72257;52.384;4.882;2024-02-15T03:08:46;10.20;;;5.20;;
81821;SDS011;72257;52.384;4.882;2024-02-15T03:11:12;12.23;;;6.07;;
81821;SDS011;72257;52.384;4.882;2024-02-15T03:13:39;14.50;;;5.85;;
81821;SDS011;72257;52.384;4.882;2024-02-15T03:16:05;9.63;;;5.35;;
81821;SDS011;72257;52.384;4.882;2024-02-15T03:18:30;10.68;;;5.28;;
81821;SDS011;72257;52.384;4.882;2024-02-15T03:20:57;11.63;;;5.30;;
81821;SDS011;72257;52.384;4.882;2024-02-15T03:23:22;13.70;;;5.35;;
81821;SDS011;72257;52.384;4.882;2024-02-15T03:25:48;10.23;;;5.07;;
81821;SDS011;72257;52.384;4.882;2024-02-15T03:28:14;11.75;;;5.65;;
81821;SDS011;72257;52.384;4.882;2024-02-15T03:30:40;10.93;;;5.07;;
81821;SDS011;72257;52.384;4.882;2024-02-15T03:33:07;10.98;;;4.85;;
81821;SDS011;72257;52.384;4.882;2024-02-15T03:35:33;11.40;;;5.60;;
81821;SDS011;72257;52.384;4.882;2024-02-15T03:37:59;10.07;;;5.10;;
81821;SDS011;72257;52.384;4.882;2024-02-15T03:40:25;11.18;;;5.28;;
81821;SDS011;72257;52.384;4.882;2024-02-15T03:42:52;10.10;;;5.07;;
81821;SDS011;72257;52.384;4.882;2024-02-15T03:45:18;13.25;;;6.22;;
81821;SDS011;72257;52.384;4.882;2024-02-15T03:47:43;10.27;;;4.63;;
81821;SDS011;72257;52.384;4.882;2024-02-15T03:50:08;9.18;;;4.53;;
81821;SDS011;72257;52.384;4.882;2024-02-15T03:52:35;10.23;;;4.82;;
81821;SDS011;72257;52.384;4.882;2024-02-15T03:55:00;10.55;;;4.53;;
81821;SDS011;72257;52.384;4.882;2024-02-15T03:57:27;11.63;;;5.13;;
81821;SDS011;72257;52.384;4.882;2024-02-15T03:59:53;8.18;;;4.60;;
81821;SDS011;72257;52.384;4.882;2024-02-15T04:02:20;9.88;;;4.95;;
81821;SDS011;72257;52.384;4.882;2024-02-15T04:04:45;10.52;;;4.90;;
81821;SDS011;72257;52.384;4.882;2024-02-15T04:07:18;10.70;;;4.85;;
81821;SDS011;72257;52.384;4.882;2024-02-15T04:09:44;11.57;;;4.45;;
81821;SDS011;72257;52.384;4.882;2024-02-15T04:12:13;13.00;;;5.10;;
81821;SDS011;72257;52.384;4.882;2024-02-15T04:14:39;13.18;;;4.95;;
81821;SDS011;72257;52.384;4.882;2024-02-15T04:17:05;12.00;;;4.93;;
81821;SDS011;72257;52.384;4.882;2024-02-15T04:19:31;11.77;;;5.28;;
81821;SDS011;72257;52.384;4.882;2024-02-15T04:21:56;9.38;;;4.68;;
81821;SDS011;72257;52.384;4.882;2024-02-15T04:24:22;9.60;;;5.10;;
81821;SDS011;72257;52.384;4.882;2024-02-15T04:26:48;12.60;;;5.40;;
81821;SDS011;72257;52.384;4.882;2024-02-15T04:29:17;10.13;;;5.10;;
81821;SDS011;72257;52.384;4.882;2024-02-15T04:31:46;9.48;;;5.65;;
81821;SDS011;72257;52.384;4.882;2024-02-15T04:34:14;9.85;;;5.32;;
81821;SDS011;72257;52.384;4.882;2024-02-15T04:36:40;12.45;;;5.95;;
81821;SDS011;72257;52.384;4.882;2024-02-15T04:39:05;11.25;;;5.80;;
81821;SDS011;72257;52.384;4.882;2024-02-15T04:41:31;10.80;;;6.20;;
81821;SDS011;72257;52.384;4.882;2024-02-15T04:43:57;12.52;;;6.35;;
81821;SDS011;72257;52.384;4.882;2024-02-15T04:46:22;10.40;;;6.30;;
81821;SDS011;72257;52.384;4.882;2024-02-15T04:48:48;10.73;;;6.50;;
81821;SDS011;72257;52.384;4.882;2024-02-15T04:51:16;13.77;;;7.15;;
81821;SDS011;72257;52.384;4.882;2024-02-15T04:53:42;11.95;;;7.07;;
81821;SDS011;72257;52.384;4.882;2024-02-15T04:56:11;14.60;;;8.23;;
81821;SDS011;72257;52.384;4.882;2024-02-15T04:58:39;11.57;;;6.60;;
81821;SDS011;72257;52.384;4.882;2024-02-15T05:01:14;13.75;;;8.52;;
81821;SDS011;72257;52.384;4.882;2024-02-15T05:03:40;15.35;;;7.28;;
81821;SDS011;72257;52.384;4.882;2024-02-15T05:06:09;14.27;;;7.43;;
81821;SDS011;72257;52.384;4.882;2024-02-15T05:08:35;15.18;;;7.72;;
81821;SDS011;72257;52.384;4.882;2024-02-15T05:11:07;13.15;;;7.43;;
81821;SDS011;72257;52.384;4.882;2024-02-15T05:13:42;14.40;;;7.75;;
81821;SDS011;72257;52.384;4.882;2024-02-15T05:16:09;15.63;;;8.15;;
81821;SDS011;72257;52.384;4.882;2024-02-15T05:18:34;12.50;;;7.50;;
81821;SDS011;72257;52.384;4.882;2024-02-15T05:21:00;14.65;;;8.27;;
81821;SDS011;72257;52.384;4.882;2024-02-15T05:23:26;13.68;;;8.10;;
81821;SDS011;72257;52.384;4.882;2024-02-15T05:25:52;12.83;;;7.87;;
81821;SDS011;72257;52.384;4.882;2024-02-15T05:28:19;10.50;;;7.15;;
81821;SDS011;72257;52.384;4.882;2024-02-15T05:30:45;11.10;;;6.75;;
81821;SDS011;72257;52.384;4.882;2024-02-15T05:33:11;9.77;;;6.87;;
81821;SDS011;72257;52.384;4.882;2024-02-15T05:35:36;13.68;;;7.30;;
81821;SDS011;72257;52.384;4.882;2024-02-15T05:38:04;12.25;;;7.60;;
81821;SDS011;72257;52.384;4.882;2024-02-15T05:40:31;13.07;;;8.02;;
81821;SDS011;72257;52.384;4.882;2024-02-15T05:42:57;12.52;;;7.00;;
81821;SDS011;72257;52.384;4.882;2024-02-15T05:47:54;12.27;;;7.07;;
81821;SDS011;72257;52.384;4.882;2024-02-15T05:52:46;11.93;;;7.22;;
81821;SDS011;72257;52.384;4.882;2024-02-15T05:55:12;11.90;;;7.13;;
81821;SDS011;72257;52.384;4.882;2024-02-15T05:57:41;15.45;;;8.02;;
81821;SDS011;72257;52.384;4.882;2024-02-15T06:00:08;11.85;;;7.32;;
81821;SDS011;72257;52.384;4.882;2024-02-15T06:02:33;11.52;;;7.40;;
81821;SDS011;72257;52.384;4.882;2024-02-15T06:04:59;12.60;;;7.47;;
81821;SDS011;72257;52.384;4.882;2024-02-15T06:07:28;10.40;;;6.35;;
81821;SDS011;72257;52.384;4.882;2024-02-15T06:09:53;16.43;;;7.63;;
81821;SDS011;72257;52.384;4.882;2024-02-15T06:12:19;12.02;;;7.65;;
81821;SDS011;72257;52.384;4.882;2024-02-15T06:14:45;13.10;;;7.32;;
81821;SDS011;72257;52.384;4.882;2024-02-15T06:17:11;13.23;;;7.82;;
81821;SDS011;72257;52.384;4.882;2024-02-15T06:19:36;13.07;;;7.30;;
81821;SDS011;72257;52.384;4.882;2024-02-15T06:22:02;11.27;;;7.32;;
81821;SDS011;72257;52.384;4.882;2024-02-15T06:24:29;12.98;;;7.80;;
81821;SDS011;72257;52.384;4.882;2024-02-15T06:26:54;14.13;;;7.30;;
81821;SDS011;72257;52.384;4.882;2024-02-15T06:29:24;10.68;;;7.15;;
81821;SDS011;72257;52.384;4.882;2024-02-15T06:32:11;12.93;;;8.00;;
81821;SDS011;72257;52.384;4.882;2024-02-15T06:34:55;14.48;;;8.65;;
81821;SDS011;72257;52.384;4.882;2024-02-15T06:37:39;15.05;;;8.07;;
81821;SDS011;72257;52.384;4.882;2024-02-15T06:40:23;14.60;;;8.45;;
81821;SDS011;72257;52.384;4.882;2024-02-15T06:42:49;15.02;;;9.02;;
81821;SDS011;72257;52.384;4.882;2024-02-15T06:45:15;13.45;;;8.27;;
81821;SDS011;72257;52.384;4.882;2024-02-15T06:47:41;16.40;;;9.25;;
81821;SDS011;72257;52.384;4.882;2024-02-15T06:50:10;14.68;;;8.55;;
81821;SDS011;72257;52.384;4.882;2024-02-15T06:52:37;15.75;;;8.77;;
81821;SDS011;72257;52.384;4.882;2024-02-15T06:55:04;14.05;;;9.38;;
81821;SDS011;72257;52.384;4.882;2024-02-15T06:57:32;13.85;;;7.63;;
81821;SDS011;72257;52.384;4.882;2024-02-15T07:00:00;14.57;;;8.25;;
81821;SDS011;72257;52.384;4.882;2024-02-15T07:02:33;16.75;;;8.60;;
81821;SDS011;72257;52.384;4.882;2024-02-15T07:04:59;11.82;;;7.60;;
81821;SDS011;72257;52.384;4.882;2024-02-15T07:07:24;14.25;;;8.50;;
81821;SDS011;72257;52.384;4.882;2024-02-15T07:09:50;13.07;;;7.63;;
81821;SDS011;72257;52.384;4.882;2024-02-15T07:12:16;11.55;;;8.15;;
81821;SDS011;72257;52.384;4.882;2024-02-15T07:14:41;14.18;;;7.65;;
81821;SDS011;72257;52.384;4.882;2024-02-15T07:17:06;12.80;;;6.93;;
81821;SDS011;72257;52.384;4.882;2024-02-15T07:19:32;12.65;;;6.53;;
81821;SDS011;72257;52.384;4.882;2024-02-15T07:22:01;9.70;;;6.32;;
81821;SDS011;72257;52.384;4.882;2024-02-15T07:24:26;11.63;;;7.15;;
81821;SDS011;72257;52.384;4.882;2024-02-15T07:26:52;10.50;;;6.43;;
81821;SDS011;72257;52.384;4.882;2024-02-15T07:29:20;9.95;;;6.10;;
81821;SDS011;72257;52.384;4.882;2024-02-15T07:31:48;10.55;;;6.07;;
81821;SDS011;72257;52.384;4.882;2024-02-15T07:34:13;10.57;;;6.35;;
81821;SDS011;72257;52.384;4.882;2024-02-15T07:36:39;11.32;;;6.25;;
81821;SDS011;72257;52.384;4.882;2024-02-15T07:39:07;9.45;;;5.88;;
81821;SDS011;72257;52.384;4.882;2024-02-15T07:41:37;9.93;;;5.97;;
81821;SDS011;72257;52.384;4.882;2024-02-15T07:44:03;10.45;;;6.28;;
81821;SDS011;72257;52.384;4.882;2024-02-15T07:46:28;8.85;;;5.78;;
81821;SDS011;72257;52.384;4.882;2024-02-15T07:48:54;9.40;;;5.38;;
81821;SDS011;72257;52.384;4.882;2024-02-15T07:51:20;8.68;;;5.60;;
81821;SDS011;72257;52.384;4.882;2024-02-15T07:53:47;8.30;;;4.70;;
81821;SDS011;72257;52.384;4.882;2024-02-15T07:56:13;6.35;;;3.95;;
81821;SDS011;72257;52.384;4.882;2024-02-15T07:58:43;7.40;;;4.65;;
81821;SDS011;72257;52.384;4.882;2024-02-15T08:01:13;9.52;;;4.93;;
81821;SDS011;72257;52.384;4.882;2024-02-15T08:03:39;8.73;;;4.40;;
81821;SDS011;72257;52.384;4.882;2024-02-15T08:06:09;8.55;;;5.20;;
81821;SDS011;72257;52.384;4.882;2024-02-15T08:08:37;8.52;;;5.38;;
81821;SDS011;72257;52.384;4.882;2024-02-15T08:11:04;8.15;;;5.50;;
81821;SDS011;72257;52.384;4.882;2024-02-15T08:13:29;11.25;;;6.07;;
81821;SDS011;72257;52.384;4.882;2024-02-15T08:15:55;8.07;;;4.68;;
81821;SDS011;72257;52.384;4.882;2024-02-15T08:18:21;9.50;;;5.22;;
81821;SDS011;72257;52.384;4.882;2024-02-15T08:20:47;9.32;;;6.32;;
81821;SDS011;72257;52.384;4.882;2024-02-15T08:23:12;8.90;;;5.47;;
81821;SDS011;72257;52.384;4.882;2024-02-15T08:25:40;9.35;;;5.57;;
81821;SDS011;72257;52.384;4.882;2024-02-15T08:28:06;8.35;;;5.40;;
81821;SDS011;72257;52.384;4.882;2024-02-15T08:30:33;9.35;;;5.93;;
81821;SDS011;72257;52.384;4.882;2024-02-15T08:32:59;9.57;;;5.53;;
81821;SDS011;72257;52.384;4.882;2024-02-15T08:35:24;8.52;;;4.63;;
81821;SDS011;72257;52.384;4.882;2024-02-15T08:37:50;8.33;;;4.63;;
81821;SDS011;72257;52.384;4.882;2024-02-15T08:40:16;6.68;;;4.50;;
81821;SDS011;72257;52.384;4.882;2024-02-15T08:42:44;6.90;;;4.63;;
81821;SDS011;72257;52.384;4.882;2024-02-15T08:45:11;10.65;;;5.07;;
81821;SDS011;72257;52.384;4.882;2024-02-15T08:47:38;7.13;;;4.47;;
81821;SDS011;72257;52.384;4.882;2024-02-15T08:50:04;7.32;;;4.43;;
81821;SDS011;72257;52.384;4.882;2024-02-15T08:52:30;6.75;;;4.43;;
81821;SDS011;72257;52.384;4.882;2024-02-15T08:54:56;7.78;;;4.40;;
81821;SDS011;72257;52.384;4.882;2024-02-15T08:57:22;6.85;;;4.60;;
81821;SDS011;72257;52.384;4.882;2024-02-15T08:59:48;8.48;;;4.80;;
81821;SDS011;72257;52.384;4.882;2024-02-15T09:02:14;7.40;;;4.73;;
81821;SDS011;72257;52.384;4.882;2024-02-15T09:04:39;7.40;;;5.18;;
81821;SDS011;72257;52.384;4.882;2024-02-15T09:07:06;7.40;;;5.18;;
81821;SDS011;72257;52.384;4.882;2024-02-15T09:09:32;9.10;;;4.85;;
81821;SDS011;72257;52.384;4.882;2024-02-15T09:12:00;9.43;;;5.60;;
81821;SDS011;72257;52.384;4.882;2024-02-15T09:14:26;8.68;;;5.13;;
81821;SDS011;72257;52.384;4.882;2024-02-15T09:16:52;10.33;;;5.87;;
81821;SDS011;72257;52.384;4.882;2024-02-15T09:19:17;10.20;;;6.67;;
81821;SDS011;72257;52.384;4.882;2024-02-15T09:21:44;10.10;;;6.38;;
81821;SDS011;72257;52.384;4.882;2024-02-15T09:24:09;11.57;;;6.10;;
81821;SDS011;72257;52.384;4.882;2024-02-15T09:26:34;10.95;;;7.00;;
81821;SDS011;72257;52.384;4.882;2024-02-15T09:29:01;10.82;;;6.72;;
81821;SDS011;72257;52.384;4.882;2024-02-15T09:31:26;11.15;;;6.35;;
81821;SDS011;72257;52.384;4.882;2024-02-15T09:33:51;12.20;;;7.50;;
81821;SDS011;72257;52.384;4.882;2024-02-15T09:36:17;13.82;;;8.20;;
81821;SDS011;72257;52.384;4.882;2024-02-15T09:38:42;11.60;;;7.13;;
81821;SDS011;72257;52.384;4.882;2024-02-15T09:41:07;12.47;;;7.60;;
81821;SDS011;72257;52.384;4.882;2024-02-15T09:43:34;15.13;;;7.80;;
81821;SDS011;72257;52.384;4.882;2024-02-15T09:46:00;14.50;;;7.45;;
81821;SDS011;72257;52.384;4.882;2024-02-15T09:48:29;12.88;;;7.45;;
81821;SDS011;72257;52.384;4.882;2024-02-15T09:50:56;12.20;;;7.80;;
81821;SDS011;72257;52.384;4.882;2024-02-15T09:53:23;12.88;;;7.63;;
81821;SDS011;72257;52.384;4.882;2024-02-15T09:55:53;11.65;;;7.60;;
81821;SDS011;72257;52.384;4.882;2024-02-15T09:58:19;16.42;;;8.07;;
81821;SDS011;72257;52.384;4.882;2024-02-15T10:00:45;16.00;;;8.40;;
81821;SDS011;72257;52.384;4.882;2024-02-15T10:03:11;14.43;;;8.07;;
81821;SDS011;72257;52.384;4.882;2024-02-15T10:05:43;12.80;;;7.65;;
81821;SDS011;72257;52.384;4.882;2024-02-15T10:08:08;13.38;;;8.40;;
81821;SDS011;72257;52.384;4.882;2024-02-15T10:10:36;13.15;;;8.07;;
81821;SDS011;72257;52.384;4.882;2024-02-15T10:13:01;15.30;;;8.50;;
81821;SDS011;72257;52.384;4.882;2024-02-15T10:15:30;15.13;;;9.32;;
81821;SDS011;72257;52.384;4.882;2024-02-15T10:18:00;18.55;;;9.38;;
81821;SDS011;72257;52.384;4.882;2024-02-15T10:20:29;15.40;;;8.68;;
81821;SDS011;72257;52.384;4.882;2024-02-15T10:25:23;15.25;;;9.02;;
81821;SDS011;72257;52.384;4.882;2024-02-15T10:27:52;14.43;;;8.85;;
81821;SDS011;72257;52.384;4.882;2024-02-15T10:30:27;16.50;;;9.38;;
81821;SDS011;72257;52.384;4.882;2024-02-15T10:32:54;14.27;;;8.55;;
81821;SDS011;72257;52.384;4.882;2024-02-15T10:35:21;15.30;;;9.35;;
81821;SDS011;72257;52.384;4.882;2024-02-15T10:37:47;17.55;;;9.20;;
81821;SDS011;72257;52.384;4.882;2024-02-15T10:40:17;17.45;;;9.13;;
81821;SDS011;72257;52.384;4.882;2024-02-15T10:42:43;16.27;;;9.68;;
81821;SDS011;72257;52.384;4.882;2024-02-15T10:45:14;12.60;;;8.52;;
81821;SDS011;72257;52.384;4.882;2024-02-15T10:47:42;15.32;;;9.23;;
81821;SDS011;72257;52.384;4.882;2024-02-15T10:50:09;12.45;;;8.57;;
81821;SDS011;72257;52.384;4.882;2024-02-15T10:52:36;17.08;;;8.70;;
81821;SDS011;72257;52.384;4.882;2024-02-15T10:55:09;16.25;;;9.15;;
81821;SDS011;72257;52.384;4.882;2024-02-15T10:57:39;14.93;;;9.02;;
81821;SDS011;72257;52.384;4.882;2024-02-15T11:00:08;13.27;;;8.40;;
81821;SDS011;72257;52.384;4.882;2024-02-15T11:03:03;14.90;;;8.68;;
81821;SDS011;72257;52.384;4.882;2024-02-15T11:05:32;16.02;;;10.20;;
81821;SDS011;72257;52.384;4.882;2024-02-15T11:08:00;15.27;;;8.75;;
81821;SDS011;72257;52.384;4.882;2024-02-15T11:10:27;14.50;;;8.52;;
81821;SDS011;72257;52.384;4.882;2024-02-15T11:12:53;16.40;;;8.35;;
81821;SDS011;72257;52.384;4.882;2024-02-15T11:15:39;13.52;;;8.13;;
81821;SDS011;72257;52.384;4.882;2024-02-15T11:18:07;11.48;;;7.68;;
81821;SDS011;72257;52.384;4.882;2024-02-15T11:22:59;14.18;;;7.68;;
81821;SDS011;72257;52.384;4.882;2024-02-15T11:25:34;14.93;;;7.97;;
81821;SDS011;72257;52.384;4.882;2024-02-15T11:30:53;14.00;;;7.18;;
81821;SDS011;72257;52.384;4.882;2024-02-15T11:33:31;13.73;;;7.00;;
81821;SDS011;72257;52.384;4.882;2024-02-15T11:36:10;12.38;;;7.53;;
81821;SDS011;72257;52.384;4.882;2024-02-15T11:38:37;12.13;;;7.10;;
81821;SDS011;72257;52.384;4.882;2024-02-15T11:41:08;14.68;;;7.25;;
81821;SDS011;72257;52.384;4.882;2024-02-15T11:46:18;13.50;;;7.32;;
81821;SDS011;72257;52.384;4.882;2024-02-15T11:48:44;12.55;;;6.70;;
81821;SDS011;72257;52.384;4.882;2024-02-15T11:51:11;13.98;;;7.32;;
81821;SDS011;72257;52.384;4.882;2024-02-15T11:54:01;10.88;;;7.10;;
81821;SDS011;72257;52.384;4.882;2024-02-15T11:56:30;10.70;;;6.47;;
81821;SDS011;72257;52.384;4.882;2024-02-15T11:59:04;15.02;;;7.65;;
81821;SDS011;72257;52.384;4.882;2024-02-15T12:01:31;13.40;;;7.05;;
81821;SDS011;72257;52.384;4.882;2024-02-15T12:04:16;15.40;;;7.25;;
81821;SDS011;72257;52.384;4.882;2024-02-15T12:07:01;12.40;;;7.10;;
81821;SDS011;72257;52.384;4.882;2024-02-15T12:09:45;15.43;;;7.60;;
81821;SDS011;72257;52.384;4.882;2024-02-15T12:12:29;14.27;;;7.65;;
81821;SDS011;72257;52.384;4.882;2024-02-15T12:15:13;9.98;;;6.18;;
81821;SDS011;72257;52.384;4.882;2024-02-15T12:18:12;11.20;;;6.43;;
81821;SDS011;72257;52.384;4.882;2024-02-15T12:20:57;10.75;;;6.55;;
81821;SDS011;72257;52.384;4.882;2024-02-15T12:23:24;9.38;;;6.45;;
81821;SDS011;72257;52.384;4.882;2024-02-15T12:25:51;9.25;;;6.18;;
81821;SDS011;72257;52.384;4.882;2024-02-15T12:28:17;10.27;;;6.45;;
81821;SDS011;72257;52.384;4.882;2024-02-15T12:30:43;10.10;;;6.05;;
81821;SDS011;72257;52.384;4.882;2024-02-15T12:33:10;9.65;;;5.22;;
81821;SDS011;72257;52.384;4.882;2024-02-15T12:35:36;8.13;;;4.97;;
81821;SDS011;72257;52.384;4.882;2024-02-15T12:38:02;7.60;;;5.45;;
81821;SDS011;72257;52.384;4.882;2024-02-15T12:40:33;12.70;;;6.13;;
81821;SDS011;72257;52.384;4.882;2024-02-15T12:43:01;9.63;;;5.15;;
81821;SDS011;72257;52.384;4.882;2024-02-15T12:45:30;7.30;;;5.38;;
81821;SDS011;72257;52.384;4.882;2024-02-15T12:47:56;9.20;;;4.90;;
81821;SDS011;72257;52.384;4.882;2024-02-15T12:50:22;8.68;;;4.78;;
81821;SDS011;72257;52.384;4.882;2024-02-15T12:52:52;7.85;;;4.85;;
81821;SDS011;72257;52.384;4.882;2024-02-15T12:55:20;9.57;;;5.10;;
81821;SDS011;72257;52.384;4.882;2024-02-15T12:57:48;7.93;;;4.82;;
81821;SDS011;72257;52.384;4.882;2024-02-15T13:00:24;7.53;;;4.10;;
81821;SDS011;72257;52.384;4.882;2024-02-15T13:02:54;6.50;;;4.05;;
81821;SDS011;72257;52.384;4.882;2024-02-15T13:05:20;9.20;;;4.85;;
81821;SDS011;72257;52.384;4.882;2024-02-15T13:07:50;6.03;;;3.90;;
81821;SDS011;72257;52.384;4.882;2024-02-15T13:10:16;6.13;;;4.18;;
81821;SDS011;72257;52.384;4.882;2024-02-15T13:12:42;6.72;;;4.13;;
81821;SDS011;72257;52.384;4.882;2024-02-15T13:15:14;6.45;;;3.42;;
81821;SDS011;72257;52.384;4.882;2024-02-15T13:17:46;7.13;;;3.13;;
81821;SDS011;72257;52.384;4.882;2024-02-15T13:20:19;5.85;;;3.35;;
81821;SDS011;72257;52.384;4.882;2024-02-15T13:22:52;5.85;;;3.42;;
81821;SDS011;72257;52.384;4.882;2024-02-15T13:25:18;6.30;;;3.78;;
81821;SDS011;72257;52.384;4.882;2024-02-15T13:30:11;8.48;;;4.15;;
81821;SDS011;72257;52.384;4.882;2024-02-15T13:32:38;4.97;;;3.95;;
81821;SDS011;72257;52.384;4.882;2024-02-15T13:35:06;11.93;;;5.10;;
81821;SDS011;72257;52.384;4.882;2024-02-15T13:37:41;6.80;;;4.40;;
81821;SDS011;72257;52.384;4.882;2024-02-15T13:40:13;5.95;;;4.13;;
81821;SDS011;72257;52.384;4.882;2024-02-15T13:42:42;6.63;;;4.50;;
81821;SDS011;72257;52.384;4.882;2024-02-15T13:45:17;7.43;;;4.38;;
81821;SDS011;72257;52.384;4.882;2024-02-15T13:47:45;5.65;;;3.90;;
81821;SDS011;72257;52.384;4.882;2024-02-15T13:50:12;6.07;;;4.03;;
81821;SDS011;72257;52.384;4.882;2024-02-15T13:52:40;8.05;;;4.35;;
81821;SDS011;72257;52.384;4.882;2024-02-15T13:55:14;8.65;;;4.78;;
81821;SDS011;72257;52.384;4.882;2024-02-15T13:57:44;6.63;;;4.32;;
81821;SDS011;72257;52.384;4.882;2024-02-15T14:00:12;12.05;;;5.57;;
81821;SDS011;72257;52.384;4.882;2024-02-15T14:02:49;7.78;;;4.97;;
81821;SDS011;72257;52.384;4.882;2024-02-15T14:05:15;8.18;;;5.25;;
81821;SDS011;72257;52.384;4.882;2024-02-15T14:07:44;7.03;;;4.80;;
81821;SDS011;72257;52.384;4.882;2024-02-15T14:10:14;6.95;;;5.07;;
81821;SDS011;72257;52.384;4.882;2024-02-15T14:12:40;7.00;;;4.78;;
81821;SDS011;72257;52.384;4.882;2024-02-15T14:15:05;9.20;;;4.70;;
81821;SDS011;72257;52.384;4.882;2024-02-15T14:17:31;11.02;;;5.00;;
81821;SDS011;72257;52.384;4.882;2024-02-15T14:19:57;8.15;;;4.90;;
81821;SDS011;72257;52.384;4.882;2024-02-15T14:22:23;5.63;;;4.20;;
81821;SDS011;72257;52.384;4.882;2024-02-15T14:24:53;6.25;;;4.13;;
81821;SDS011;72257;52.384;4.882;2024-02-15T14:27:18;7.57;;;4.35;;
81821;SDS011;72257;52.384;4.882;2024-02-15T14:29:44;7.53;;;3.70;;
81821;SDS011;72257;52.384;4.882;2024-02-15T14:32:29;6.05;;;3.72;;
81821;SDS011;72257;52.384;4.882;2024-02-15T14:35:13;9.05;;;3.80;;
81821;SDS011;72257;52.384;4.882;2024-02-15T14:37:39;7.28;;;3.70;;
81821;SDS011;72257;52.384;4.882;2024-02-15T14:40:05;8.25;;;3.97;;
81821;SDS011;72257;52.384;4.882;2024-02-15T14:42:32;5.60;;;3.22;;
81821;SDS011;72257;52.384;4.882;2024-02-15T14:44:59;4.30;;;3.08;;
81821;SDS011;72257;52.384;4.882;2024-02-15T14:47:24;6.57;;;3.30;;
81821;SDS011;72257;52.384;4.882;2024-02-15T14:49:49;8.83;;;2.93;;
81821;SDS011;72257;52.384;4.882;2024-02-15T14:52:15;5.30;;;2.50;;
81821;SDS011;72257;52.384;4.882;2024-02-15T14:54:40;7.27;;;3.90;;
81821;SDS011;72257;52.384;4.882;2024-02-15T14:57:05;5.23;;;2.90;;
81821;SDS011;72257;52.384;4.882;2024-02-15T14:59:31;6.63;;;2.83;;
81821;SDS011;72257;52.384;4.882;2024-02-15T15:01:57;5.18;;;2.70;;
81821;SDS011;72257;52.384;4.882;2024-02-15T15:04:27;6.55;;;2.92;;